Time;durP1;ratioP1;P1;durP2;ratioP2;P2;SDS_P1;SDS_P2;PMS_P1;PMS_P2;Temp;Humidity;BMP_temperature;BMP_pressure;BME280_temperature;BME280_humidity;BME280_pressure;Samples;Min_cycle;Max_cycle;Signal;HPM_P1;HPM_P2
2022/07/22 00:00:38;;;;;;;4.28;1.60;;;;;;;24.43;51.55;102117.34;5093881;28;20055;-67
2022/07/22 00:03:03;;;;;;;4.20;1.40;;;;;;;24.46;51.49;102118.88;5093039;28;20471;-67
2022/07/22 00:05:28;;;;;;;4.20;1.60;;;;;;;24.49;51.43;102117.78;5093848;28;20291;-67
2022/07/22 00:07:54;;;;;;;3.83;1.50;;;;;;;24.48;51.39;102116.06;5093690;28;20464;-67
2022/07/22 00:10:25;;;;;;;3.88;1.58;;;;;;;24.46;51.64;102108.22;5092918;28;20077;-67
2022/07/22 00:12:50;;;;;;;3.28;1.58;;;;;;;24.46;51.34;102108.22;5093399;28;20052;-67
2022/07/22 00:15:16;;;;;;;3.60;1.65;;;;;;;24.47;51.65;102112.59;5093289;28;20120;-67
2022/07/22 00:17:41;;;;;;;3.78;1.52;;;;;;;24.45;51.56;102109.22;5092990;28;20064;-67
2022/07/22 00:20:07;;;;;;;3.55;1.70;;;;;;;24.44;51.36;102108.34;5093344;28;20027;-67
2022/07/22 00:22:33;;;;;;;3.80;1.55;;;;;;;24.44;51.65;102105.69;5093637;28;20028;-67
2022/07/22 00:24:58;;;;;;;4.28;1.70;;;;;;;24.46;51.43;102108.22;5092473;28;20027;-67
2022/07/22 00:27:24;;;;;;;3.13;1.50;;;;;;;24.44;51.58;102105.69;5093395;28;20487;-67
2022/07/22 00:29:49;;;;;;;3.60;1.48;;;;;;;24.44;51.63;102111.03;5093187;28;20269;-67
2022/07/22 00:32:14;;;;;;;3.28;1.40;;;;;;;24.45;51.67;102106.56;5092405;28;20119;-67
2022/07/22 00:34:40;;;;;;;4.30;1.50;;;;;;;24.42;51.69;102106.81;5093499;28;20024;-67
2022/07/22 00:37:06;;;;;;;3.08;1.45;;;;;;;24.44;51.27;102115.50;5092819;28;20739;-67
2022/07/22 00:39:31;;;;;;;3.92;1.90;;;;;;;24.44;51.08;102107.53;5092701;28;20086;-67
2022/07/22 00:41:58;;;;;;;4.63;1.73;;;;;;;24.43;51.50;102108.50;5093015;28;20360;-67
2022/07/22 00:44:23;;;;;;;2.55;1.40;;;;;;;24.42;51.55;102106.81;5091844;28;20076;-67
2022/07/22 00:46:48;;;;;;;3.72;1.70;;;;;;;24.41;51.38;102107.78;5092907;28;20111;-67
2022/07/22 00:49:13;;;;;;;5.15;1.35;;;;;;;24.41;51.63;102108.63;5092955;28;20036;-67
2022/07/22 00:51:39;;;;;;;3.60;1.50;;;;;;;24.40;51.61;102104.28;5092390;28;20059;-67
2022/07/22 00:54:06;;;;;;;5.38;1.67;;;;;;;24.41;51.43;102097.13;5092631;28;20767;-67
2022/07/22 00:56:31;;;;;;;3.92;1.73;;;;;;;24.42;51.23;102093.50;5093046;28;20028;-67
2022/07/22 00:59:02;;;;;;;4.05;1.63;;;;;;;24.42;51.18;102088.16;5091857;28;20028;-67
2022/07/22 01:01:27;;;;;;;4.43;1.80;;;;;;;24.43;51.12;102092.50;5093103;28;20024;-67
2022/07/22 01:03:53;;;;;;;3.70;1.67;;;;;;;24.43;51.07;102090.69;5092998;28;20495;-67
2022/07/22 01:06:18;;;;;;;3.83;1.50;;;;;;;24.41;51.05;102089.13;5092010;28;20379;-67
2022/07/22 01:08:44;;;;;;;4.07;1.60;;;;;;;24.44;50.89;102083.53;5092961;28;20062;-67
2022/07/22 01:11:16;;;;;;;4.47;2.28;;;;;;;24.43;51.03;102082.72;5092523;28;20113;-67
2022/07/22 01:13:42;;;;;;;3.35;1.67;;;;;;;24.43;51.01;102085.38;5091878;28;20052;-67
2022/07/22 01:16:09;;;;;;;3.38;1.40;;;;;;;24.41;51.17;102081.16;5092542;28;20020;-67
2022/07/22 01:18:36;;;;;;;3.78;1.60;;;;;;;24.40;51.10;102082.13;5092821;28;20020;-67
2022/07/22 01:21:01;;;;;;;4.30;1.65;;;;;;;24.40;50.91;102082.13;5091839;28;20035;-67
2022/07/22 01:23:26;;;;;;;3.63;1.40;;;;;;;24.39;51.27;102080.44;5092710;28;20020;-67
2022/07/22 01:25:52;;;;;;;3.38;1.48;;;;;;;24.39;51.04;102077.78;5092579;28;20024;-67
2022/07/22 01:28:19;;;;;;;6.05;2.03;;;;;;;24.38;50.83;102084.91;5091686;28;20032;-67
2022/07/22 01:30:44;;;;;;;4.20;1.50;;;;;;;24.39;51.38;102083.13;5092574;28;20024;-67
2022/07/22 01:33:09;;;;;;;5.05;1.60;;;;;;;24.37;51.03;102077.91;5092229;28;20039;-67
2022/07/22 01:35:34;;;;;;;3.40;1.42;;;;;;;24.35;51.21;102079.84;5091915;28;20024;-67
2022/07/22 01:38:00;;;;;;;4.03;1.75;;;;;;;24.34;51.18;102091.50;5092312;28;20034;-67
2022/07/22 01:40:25;;;;;;;5.27;1.30;;;;;;;24.34;51.01;102082.66;5092547;28;20024;-67
2022/07/22 01:42:50;;;;;;;4.30;1.40;;;;;;;24.31;51.35;102075.81;5092203;28;20752;-67
2022/07/22 01:45:16;;;;;;;3.70;1.52;;;;;;;24.32;50.83;102085.47;5092399;28;20020;-67
2022/07/22 01:47:41;;;;;;;3.80;1.50;;;;;;;24.31;50.66;102081.13;5091846;28;20365;-67
2022/07/22 01:50:09;;;;;;;5.03;1.92;;;;;;;24.30;51.07;102087.41;5092228;28;20549;-66
2022/07/22 01:52:37;;;;;;;3.58;1.65;;;;;;;24.29;51.00;102085.72;5092442;28;20391;-67
2022/07/22 01:55:04;;;;;;;3.67;1.60;;;;;;;24.29;51.08;102092.88;5091229;28;20020;-67
2022/07/22 01:57:30;;;;;;;4.38;1.65;;;;;;;24.28;50.74;102092.06;5095664;28;20073;-67
2022/07/22 01:59:55;;;;;;;3.45;1.50;;;;;;;24.26;50.60;102092.19;5096137;28;20413;-67
2022/07/22 02:02:20;;;;;;;3.35;1.50;;;;;;;24.26;50.88;102094.03;5095322;28;20467;-67
2022/07/22 02:04:48;;;;;;;4.10;1.73;;;;;;;24.25;50.58;102092.31;5096321;28;20032;-67
2022/07/22 02:07:13;;;;;;;3.90;1.70;;;;;;;24.23;50.59;102084.47;5096035;28;20268;-67
2022/07/22 02:09:42;;;;;;;4.70;1.50;;;;;;;24.24;50.85;102083.50;5095278;28;20475;-67
2022/07/22 02:12:08;;;;;;;3.53;1.58;;;;;;;24.23;50.82;102084.47;5095404;28;20035;-67
2022/07/22 02:14:33;;;;;;;3.88;1.70;;;;;;;24.22;51.04;102074.78;5096188;28;20204;-67
2022/07/22 02:16:58;;;;;;;3.53;1.98;;;;;;;24.22;50.67;102072.13;5094964;28;20475;-67
2022/07/22 02:19:24;;;;;;;3.65;1.80;;;;;;;24.21;50.77;102073.13;5095949;28;20024;-67
2022/07/22 02:21:49;;;;;;;3.97;1.70;;;;;;;24.21;50.96;102075.78;5096077;28;20035;-67
2022/07/22 02:24:17;;;;;;;4.37;1.40;;;;;;;24.21;50.51;102078.44;5095055;28;20284;-67
2022/07/22 02:26:42;;;;;;;3.58;1.60;;;;;;;24.16;50.92;102072.66;5095974;28;20277;-67
2022/07/22 02:29:08;;;;;;;3.88;1.83;;;;;;;24.18;50.82;102076.03;5095415;28;20024;-67
2022/07/22 02:31:33;;;;;;;5.35;2.00;;;;;;;24.17;50.75;102079.69;5094947;28;20070;-67
2022/07/22 02:33:58;;;;;;;3.22;1.60;;;;;;;24.18;50.80;102078.72;5095449;28;20309;-67
2022/07/22 02:36:24;;;;;;;3.60;1.50;;;;;;;24.20;50.57;102073.25;5095820;28;20478;-67
2022/07/22 02:38:49;;;;;;;3.45;1.60;;;;;;;24.20;50.99;102075.91;5094832;28;20364;-67
2022/07/22 02:41:17;;;;;;;5.20;1.60;;;;;;;24.18;50.78;102069.84;5095433;28;20032;-67
2022/07/22 02:43:42;;;;;;;2.85;1.45;;;;;;;24.19;50.85;102077.72;5095632;28;20498;-67
2022/07/22 02:46:07;;;;;;;4.35;1.98;;;;;;;24.17;50.59;102071.69;5094494;28;20471;-66
2022/07/22 02:48:33;;;;;;;4.40;1.60;;;;;;;24.16;51.01;102072.66;5095585;28;20028;-67
2022/07/22 02:50:59;;;;;;;4.25;1.65;;;;;;;24.17;50.55;102060.19;5094304;28;20028;-67
2022/07/22 02:53:24;;;;;;;3.50;1.60;;;;;;;24.18;50.73;102065.38;5095400;28;20020;-67
2022/07/22 02:55:50;;;;;;;5.22;1.73;;;;;;;24.18;50.91;102065.38;5095549;28;20020;-66
2022/07/22 02:58:15;;;;;;;4.80;1.50;;;;;;;24.17;50.87;102063.69;5094610;28;20028;-67
2022/07/22 03:00:40;;;;;;;3.95;1.85;;;;;;;24.16;50.81;102059.34;5095336;28;20379;-66
2022/07/22 03:03:06;;;;;;;4.28;1.73;;;;;;;24.16;50.70;102058.50;5094815;28;20058;-66
2022/07/22 03:05:31;;;;;;;4.25;1.52;;;;;;;24.13;50.89;102056.09;5094294;28;20383;-66
2022/07/22 03:07:56;;;;;;;3.72;1.70;;;;;;;24.16;50.40;102045.19;5094168;28;20099;-66
2022/07/22 03:10:22;;;;;;;3.70;1.70;;;;;;;24.16;50.74;102048.69;5095120;28;20028;-67
2022/07/22 03:12:47;;;;;;;5.82;1.90;;;;;;;24.15;50.88;102052.34;5093952;28;20379;-66
2022/07/22 03:15:12;;;;;;;4.10;1.90;;;;;;;24.15;50.34;102047.03;5094466;28;20020;-66
2022/07/22 03:17:38;;;;;;;4.75;1.80;;;;;;;24.16;50.68;102045.19;5094917;28;20020;-66
2022/07/22 03:20:06;;;;;;;3.50;1.60;;;;;;;24.16;50.55;102047.84;5093704;28;20391;-66
2022/07/22 03:22:31;;;;;;;4.20;1.73;;;;;;;24.15;50.81;102043.50;5094641;28;20475;-67
2022/07/22 03:24:56;;;;;;;4.63;1.80;;;;;;;24.15;50.49;102044.34;5094495;28;20085;-66
2022/07/22 03:27:22;;;;;;;3.47;1.60;;;;;;;24.12;50.72;102041.97;5093928;28;20024;-66
2022/07/22 03:29:47;;;;;;;4.40;1.80;;;;;;;24.12;50.58;102043.78;5094608;28;20296;-66
2022/07/22 03:32:12;;;;;;;2.90;1.63;;;;;;;24.11;50.47;102050.09;5094237;28;20475;-66
2022/07/22 03:34:38;;;;;;;4.20;1.55;;;;;;;24.12;50.74;102039.31;5093617;28;20475;-66
2022/07/22 03:37:03;;;;;;;3.28;1.50;;;;;;;24.13;50.79;102038.31;5094132;28;20047;-67
2022/07/22 03:39:28;;;;;;;4.28;1.83;;;;;;;24.11;50.29;102047.41;5094587;28;20382;-66
2022/07/22 03:42:03;;;;;;;3.67;1.60;;;;;;;24.11;50.17;102040.25;5093693;28;20498;-66
2022/07/22 03:44:31;;;;;;;5.05;1.58;;;;;;;24.10;50.25;102051.91;5094425;28;20052;-67
2022/07/22 03:46:56;;;;;;;3.90;1.63;;;;;;;24.09;50.12;102048.38;5093865;28;20028;-66
2022/07/22 03:49:22;;;;;;;4.57;1.85;;;;;;;24.10;50.34;102051.91;5093405;28;20088;-66
2022/07/22 03:51:47;;;;;;;3.83;1.60;;;;;;;24.11;50.66;102052.75;5094055;28;20531;-67
2022/07/22 03:54:12;;;;;;;4.28;1.67;;;;;;;24.09;50.63;102052.88;5092985;28;20435;-66
2022/07/22 03:56:38;;;;;;;5.43;1.80;;;;;;;24.08;50.29;102057.38;5094233;28;20034;-66
2022/07/22 03:59:06;;;;;;;3.78;1.77;;;;;;;24.08;50.74;102057.38;5093932;28;20352;-66
2022/07/22 04:01:31;;;;;;;4.60;1.52;;;;;;;24.07;50.29;102060.19;5093277;28;20032;-66
2022/07/22 04:03:56;;;;;;;4.00;1.70;;;;;;;24.06;50.47;102059.31;5093657;28;20020;-66
2022/07/22 04:06:22;;;;;;;3.70;1.67;;;;;;;24.05;50.42;102068.28;5093857;28;20481;-66
2022/07/22 04:08:47;;;;;;;4.75;2.00;;;;;;;24.03;50.84;102070.22;5093041;28;20069;-66
2022/07/22 04:11:12;;;;;;;3.83;1.60;;;;;;;24.07;50.28;102070.81;5093691;28;20035;-67
2022/07/22 04:13:38;;;;;;;4.15;1.60;;;;;;;24.06;50.66;102063.81;5093499;28;20044;-66
2022/07/22 04:16:03;;;;;;;3.72;1.65;;;;;;;24.07;50.81;102073.50;5092623;28;20035;-67
2022/07/22 04:18:32;;;;;;;3.63;1.65;;;;;;;24.07;50.43;102070.81;5093030;28;20035;-67
2022/07/22 04:20:58;;;;;;;3.78;1.70;;;;;;;24.05;50.33;102068.28;5093000;28;20031;-67
2022/07/22 04:23:26;;;;;;;3.83;1.40;;;;;;;24.05;50.58;102068.28;5093053;28;20032;-67
2022/07/22 04:25:54;;;;;;;3.47;1.90;;;;;;;24.06;50.44;102063.81;5093657;28;20036;-67
2022/07/22 04:28:19;;;;;;;4.53;1.80;;;;;;;24.06;50.58;102063.81;5093630;28;20026;-67
2022/07/22 04:30:45;;;;;;;4.63;1.90;;;;;;;24.07;50.29;102063.66;5092620;28;20106;-68
2022/07/22 04:33:10;;;;;;;4.13;2.05;;;;;;;24.08;50.34;102068.03;5093034;28;20028;-67
2022/07/22 04:35:35;;;;;;;3.15;1.60;;;;;;;24.07;50.39;102068.16;5093215;28;20059;-68
2022/07/22 04:38:01;;;;;;;4.00;1.83;;;;;;;24.07;50.60;102061.00;5092448;28;20048;-68
2022/07/22 04:40:26;;;;;;;3.33;1.70;;;;;;;24.07;50.67;102060.19;5093455;28;20097;-68
2022/07/22 04:42:51;;;;;;;3.97;1.88;;;;;;;24.08;50.16;102060.03;5093300;28;20441;-67
2022/07/22 04:45:17;;;;;;;4.70;1.80;;;;;;;24.07;50.65;102060.19;5092176;28;20036;-67
2022/07/22 04:47:42;;;;;;;4.57;1.80;;;;;;;24.06;50.16;102056.66;5093147;28;20483;-67
2022/07/22 04:50:08;;;;;;;3.22;1.50;;;;;;;24.07;50.42;102057.50;5092805;28;20024;-67
2022/07/22 04:52:33;;;;;;;4.75;1.70;;;;;;;24.06;50.56;102053.97;5092433;28;20040;-67
2022/07/22 04:54:58;;;;;;;4.23;1.80;;;;;;;24.08;50.47;102057.38;5092954;28;20402;-67
2022/07/22 04:57:25;;;;;;;4.60;1.90;;;;;;;24.08;50.55;102049.38;5093013;28;20276;-67
2022/07/22 04:59:50;;;;;;;4.22;1.70;;;;;;;24.08;50.17;102057.38;5092789;28;20103;-67
2022/07/22 05:02:15;;;;;;;4.10;1.90;;;;;;;24.09;50.21;102052.88;5092553;28;20050;-67
2022/07/22 05:04:41;;;;;;;4.47;1.90;;;;;;;24.09;50.58;102050.22;5092050;28;20265;-67
2022/07/22 05:07:06;;;;;;;4.77;1.93;;;;;;;24.09;50.33;102052.88;5092793;28;20280;-68
2022/07/22 05:09:31;;;;;;;4.63;2.07;;;;;;;24.11;50.21;102050.09;5092884;28;20352;-67
2022/07/22 05:11:57;;;;;;;4.95;1.92;;;;;;;24.11;50.06;102042.94;5091529;28;20292;-67
2022/07/22 05:14:24;;;;;;;4.33;2.00;;;;;;;24.11;50.39;102036.78;5092835;28;20059;-67
2022/07/22 05:16:52;;;;;;;4.78;2.10;;;;;;;24.10;50.08;102038.59;5092625;28;20618;-67
2022/07/22 05:19:18;;;;;;;4.47;1.88;;;;;;;24.10;50.17;102046.59;5091544;28;20024;-67
2022/07/22 05:21:43;;;;;;;5.72;1.80;;;;;;;24.10;50.15;102041.25;5092747;28;20023;-67
2022/07/22 05:24:08;;;;;;;6.30;1.90;;;;;;;24.10;50.47;102041.25;5092228;28;20043;-67
2022/07/22 05:26:34;;;;;;;4.07;1.80;;;;;;;24.11;50.20;102047.41;5091930;28;20035;-67
2022/07/22 05:28:59;;;;;;;5.35;2.08;;;;;;;24.12;50.29;102041.13;5092256;28;20422;-67
2022/07/22 05:31:24;;;;;;;4.43;2.10;;;;;;;24.13;50.40;102043.63;5095526;28;20042;-68
2022/07/22 05:33:50;;;;;;;4.30;2.13;;;;;;;24.15;50.18;102040.81;5095864;28;20024;-68
2022/07/22 05:36:24;;;;;;;4.18;1.80;;;;;;;24.13;50.31;102035.63;5096469;28;20040;-67
2022/07/22 05:38:49;;;;;;;4.60;2.10;;;;;;;24.15;50.04;102039.03;5096645;28;20020;-68
2022/07/22 05:41:16;;;;;;;5.27;1.93;;;;;;;24.14;50.41;102045.31;5095588;28;20028;-68
2022/07/22 05:43:41;;;;;;;4.70;2.10;;;;;;;24.16;50.19;102045.19;5096553;28;20339;-68
2022/07/22 05:46:07;;;;;;;3.80;1.58;;;;;;;24.18;50.47;102048.53;5096099;28;20062;-69
2022/07/22 05:48:32;;;;;;;7.90;4.20;;;;;;;24.09;50.42;102055.53;5095649;28;20111;-66
2022/07/22 05:51:00;;;;;;;8.93;5.07;;;;;;;23.78;50.50;102054.69;5096239;28;20027;-66
2022/07/22 05:53:26;;;;;;;9.38;4.75;;;;;;;23.35;52.59;102051.22;5096531;28;20107;-67
2022/07/22 05:55:51;;;;;;;8.13;4.57;;;;;;;22.93;54.19;102054.66;5095479;28;20107;-65
2022/07/22 05:58:16;;;;;;;6.97;4.40;;;;;;;22.55;55.54;102058.66;5095810;28;20028;-64
2022/07/22 06:00:42;;;;;;;9.88;5.07;;;;;;;22.23;56.55;102048.78;5096066;28;20024;-64
2022/07/22 06:03:07;;;;;;;9.93;5.03;;;;;;;22.00;57.93;102052.44;5095238;28;20028;-64
2022/07/22 06:05:33;;;;;;;11.40;4.97;;;;;;;21.78;57.88;102055.91;5096233;28;20487;-64
2022/07/22 06:07:58;;;;;;;8.32;4.65;;;;;;;21.59;59.24;102054.72;5095169;28;20024;-64
2022/07/22 06:10:26;;;;;;;10.07;4.30;;;;;;;21.45;57.50;102057.56;5096138;28;20020;-64
2022/07/22 06:12:51;;;;;;;10.00;4.63;;;;;;;21.33;58.92;102060.19;5095711;28;20326;-64
2022/07/22 06:15:16;;;;;;;9.93;4.60;;;;;;;21.26;59.92;102063.41;5094907;28;20040;-65
2022/07/22 06:17:41;;;;;;;8.50;3.73;;;;;;;21.19;59.80;102055.06;5095991;28;20032;-63
2022/07/22 06:20:10;;;;;;;8.90;4.40;;;;;;;21.15;60.55;102059.75;5095774;28;20367;-67
2022/07/22 06:22:35;;;;;;;9.35;4.30;;;;;;;21.07;58.77;102051.53;5095188;28;20280;-64
2022/07/22 06:25:00;;;;;;;7.22;4.82;;;;;;;20.99;59.35;102059.22;5095369;28;20073;-64
2022/07/22 06:27:25;;;;;;;8.20;3.05;;;;;;;20.93;58.85;102051.72;5095643;28;20082;-65
2022/07/22 06:29:51;;;;;;;10.38;4.55;;;;;;;20.91;58.32;102057.13;5095197;28;20107;-65
2022/07/22 06:32:16;;;;;;;9.23;3.85;;;;;;;20.92;58.72;102052.66;5095075;28;20039;-65
2022/07/22 06:34:41;;;;;;;9.35;3.50;;;;;;;20.95;58.96;102057.72;5095680;28;20031;-65
2022/07/22 06:37:08;;;;;;;8.82;3.60;;;;;;;21.01;59.88;102047.53;5094731;28;20482;-64
2022/07/22 06:39:33;;;;;;;10.40;4.20;;;;;;;20.99;57.77;102051.25;5095458;28;20024;-64
2022/07/22 06:41:58;;;;;;;8.77;4.13;;;;;;;20.91;59.17;102045.69;5094291;28;20031;-64
2022/07/22 06:44:24;;;;;;;7.70;3.73;;;;;;;20.86;59.29;102042.53;5094493;28;20382;-63
2022/07/22 06:46:49;;;;;;;7.15;2.88;;;;;;;20.78;57.40;102041.28;5095248;28;20759;-63
2022/07/22 06:49:14;;;;;;;6.45;2.58;;;;;;;20.74;55.39;102046.94;5094976;28;20028;-63
2022/07/22 06:51:40;;;;;;;4.65;1.73;;;;;;;20.68;53.41;102045.59;5094441;28;20466;-67
2022/07/22 06:54:05;;;;;;;6.03;2.20;;;;;;;20.64;55.09;102049.41;5094971;28;20044;-65
2022/07/22 06:56:33;;;;;;;8.00;2.60;;;;;;;20.61;55.40;102049.59;5090509;28;20107;-64
2022/07/22 06:58:58;;;;;;;6.22;1.90;;;;;;;20.57;54.81;102049.00;5094153;28;20024;-65
2022/07/22 07:01:24;;;;;;;5.88;2.35;;;;;;;20.55;53.67;102050.03;5095206;28;20111;-65
2022/07/22 07:03:49;;;;;;;5.47;2.10;;;;;;;20.54;53.37;102051.03;5095346;28;20464;-65
2022/07/22 07:06:14;;;;;;;5.90;1.90;;;;;;;20.52;53.01;102051.13;5093962;28;20024;-68
2022/07/22 07:08:40;;;;;;;4.83;1.70;;;;;;;20.52;53.54;102047.63;5095054;28;20276;-68
2022/07/22 07:11:06;;;;;;;5.43;1.88;;;;;;;20.48;53.59;102049.66;5094028;28;20696;-69
2022/07/22 07:13:32;;;;;;;7.50;2.33;;;;;;;20.46;53.74;102039.16;5094757;28;20044;-65
2022/07/22 07:15:58;;;;;;;5.03;1.80;;;;;;;20.49;54.46;102032.81;5094351;28;20027;-67
2022/07/22 07:18:23;;;;;;;5.07;1.50;;;;;;;20.57;54.62;102038.41;5094273;28;20133;-67
2022/07/22 07:20:49;;;;;;;3.95;1.40;;;;;;;20.66;53.67;102031.59;5095063;28;20405;-67
2022/07/22 07:23:14;;;;;;;3.88;1.63;;;;;;;20.69;53.92;102031.38;5094485;28;20032;-68
2022/07/22 07:25:40;;;;;;;3.42;1.40;;;;;;;20.72;52.31;102031.16;5094083;28;20016;-67
2022/07/22 07:28:05;;;;;;;3.55;1.20;;;;;;;20.71;51.83;102033.91;5094420;28;20024;-72
2022/07/22 07:30:31;;;;;;;3.17;1.20;;;;;;;20.71;50.75;102033.91;5094443;28;20375;-65
2022/07/22 07:32:56;;;;;;;3.60;1.40;;;;;;;20.72;51.54;102033.78;5093629;28;20024;-67
2022/07/22 07:35:22;;;;;;;4.10;1.10;;;;;;;20.75;53.25;102043.34;5094785;28;20080;-67
2022/07/22 07:37:47;;;;;;;3.42;1.30;;;;;;;20.69;50.99;102034.03;5094427;28;20372;-66
2022/07/22 07:40:13;;;;;;;3.05;1.33;;;;;;;20.71;51.91;102039.22;5093440;28;20050;-66
2022/07/22 07:42:38;;;;;;;5.05;1.90;;;;;;;20.64;51.84;102026.41;5094700;28;20398;-68
2022/07/22 07:45:04;;;;;;;4.18;1.50;;;;;;;20.63;51.59;102026.50;5093865;28;20028;-66
2022/07/22 07:47:30;;;;;;;4.22;1.70;;;;;;;20.62;52.61;102017.72;5093438;28;20013;-66
2022/07/22 07:49:57;;;;;;;3.47;1.30;;;;;;;20.64;51.44;102021.13;5094120;28;20020;-65
2022/07/22 07:52:22;;;;;;;3.45;1.20;;;;;;;20.71;51.65;102034.78;5094307;28;20047;-65
2022/07/22 07:54:48;;;;;;;3.40;1.30;;;;;;;20.76;53.86;102032.63;5092595;28;20475;-67
2022/07/22 07:57:13;;;;;;;3.85;1.48;;;;;;;20.76;51.22;102032.63;5093781;28;20498;-66
2022/07/22 07:59:39;;;;;;;8.25;1.25;;;;;;;20.77;51.48;102030.81;5093075;28;20103;-67
2022/07/22 08:02:05;;;;;;;3.88;1.35;;;;;;;20.77;53.09;102033.47;5093124;28;20028;-65
2022/07/22 08:04:31;;;;;;;4.20;1.48;;;;;;;20.78;53.72;102035.16;5093831;28;20441;-66
2022/07/22 08:06:57;;;;;;;4.03;1.92;;;;;;;20.78;55.37;102032.50;5093716;28;20055;-67
2022/07/22 08:09:22;;;;;;;5.70;1.90;;;;;;;20.80;54.31;102028.78;5093293;28;20063;-65
2022/07/22 08:11:54;;;;;;;5.35;1.65;;;;;;;20.82;53.48;102033.97;5093762;28;20055;-67
2022/07/22 08:14:19;;;;;;;5.43;1.73;;;;;;;20.82;54.11;102026.88;5093439;28;20036;-66
2022/07/22 08:16:44;;;;;;;6.75;1.83;;;;;;;20.79;52.39;102020.94;5093211;28;20027;-66
2022/07/22 08:19:10;;;;;;;5.55;1.60;;;;;;;20.75;54.35;102019.50;5093620;28;20475;-67
2022/07/22 08:21:35;;;;;;;4.85;1.80;;;;;;;20.72;54.60;102025.00;5093144;28;20469;-66
2022/07/22 08:24:01;;;;;;;4.32;1.60;;;;;;;20.66;55.36;102028.94;5093835;28;20020;-66
2022/07/22 08:26:26;;;;;;;4.57;1.70;;;;;;;20.60;54.39;102027.59;5094012;28;20037;-82
2022/07/22 08:28:52;;;;;;;7.13;1.58;;;;;;;20.56;54.13;102020.81;5092915;28;20099;-68
2022/07/22 08:31:17;;;;;;;3.88;1.52;;;;;;;20.57;54.13;102022.50;5093328;28;20383;-68
2022/07/22 08:33:42;;;;;;;3.38;1.30;;;;;;;20.57;55.65;102033.09;5093666;28;20047;-67
2022/07/22 08:36:08;;;;;;;3.83;1.50;;;;;;;20.53;53.87;102025.50;5092531;28;20028;-67
2022/07/22 08:38:33;;;;;;;5.15;1.50;;;;;;;20.53;54.30;102025.50;5094120;28;20024;-68
2022/07/22 08:41:02;;;;;;;4.95;1.70;;;;;;;20.54;52.67;102022.72;5093150;28;20036;-68
2022/07/22 08:43:27;;;;;;;5.47;1.60;;;;;;;20.57;51.61;102014.56;5092531;28;20106;-66
2022/07/22 08:45:52;;;;;;;3.63;1.30;;;;;;;20.61;52.81;102023.13;5093477;28;20582;-67
2022/07/22 08:48:18;;;;;;;3.00;1.45;;;;;;;20.63;52.11;102011.47;5092910;28;20149;-70
2022/07/22 08:50:43;;;;;;;3.00;1.30;;;;;;;20.68;52.58;102015.59;5092655;28;20056;-68
2022/07/22 08:53:12;;;;;;;4.70;1.80;;;;;;;20.73;51.03;102016.97;5092718;28;20060;-70
2022/07/22 08:55:45;;;;;;;3.83;1.42;;;;;;;20.79;48.80;102010.34;5093223;28;20107;-69
2022/07/22 08:58:14;;;;;;;4.43;1.42;;;;;;;20.86;49.91;102010.75;5092072;28;20480;-69
2022/07/22 09:00:41;;;;;;;4.85;1.30;;;;;;;20.89;50.94;102015.81;5093175;28;20579;-68
2022/07/22 09:03:27;;;;;;;3.90;1.55;;;;;;;20.90;50.62;102014.84;5093475;28;20114;-67
2022/07/22 09:05:53;;;;;;;3.00;1.20;;;;;;;20.91;52.24;102017.38;5092158;28;20538;-67
2022/07/22 09:08:19;;;;;;;4.03;1.60;;;;;;;20.92;50.84;102018.22;5092847;28;20107;-67
2022/07/22 09:10:45;;;;;;;6.75;1.83;;;;;;;20.93;51.86;102020.75;5092746;28;20012;-65
2022/07/22 09:13:11;;;;;;;4.93;2.38;;;;;;;20.95;51.48;102023.28;5092867;28;20055;-66
2022/07/22 09:15:46;;;;;;;5.03;1.60;;;;;;;20.95;50.52;102018.84;5093469;28;20479;-67
2022/07/22 09:18:11;;;;;;;4.32;1.40;;;;;;;20.93;51.61;102010.16;5092106;28;20059;-66
2022/07/22 09:20:37;;;;;;;6.00;1.50;;;;;;;20.95;52.56;102012.69;5093050;28;20044;-67
2022/07/22 09:23:10;;;;;;;5.22;2.03;;;;;;;20.95;52.36;102012.69;5092276;28;20035;-64
2022/07/22 09:25:37;;;;;;;5.53;1.60;;;;;;;20.94;53.19;102018.97;5092114;28;20417;-64
2022/07/22 09:28:05;;;;;;;4.40;1.67;;;;;;;20.92;51.69;102003.19;5092359;28;20059;-65
2022/07/22 09:30:32;;;;;;;5.25;1.75;;;;;;;20.90;51.51;102006.91;5092594;28;20039;-65
2022/07/22 09:32:58;;;;;;;4.03;1.60;;;;;;;20.89;51.31;102005.22;5092855;28;20031;-68
2022/07/22 09:35:24;;;;;;;4.87;2.00;;;;;;;20.84;52.08;102002.91;5092698;28;20032;-65
2022/07/22 09:37:58;;;;;;;3.65;1.40;;;;;;;20.82;52.04;102004.81;5092552;28;20275;-69
2022/07/22 09:40:26;;;;;;;5.35;1.60;;;;;;;20.86;51.15;101994.84;5091915;28;20028;-67
2022/07/22 09:42:58;;;;;;;5.32;1.50;;;;;;;20.91;51.17;101993.53;5092561;28;20035;-68
2022/07/22 09:45:26;;;;;;;5.05;1.60;;;;;;;21.02;51.02;101990.91;5092571;28;20032;-67
2022/07/22 09:47:55;;;;;;;4.13;1.40;;;;;;;21.14;51.17;101993.59;5091592;28;20035;-66
2022/07/22 09:50:28;;;;;;;4.47;1.73;;;;;;;21.27;51.84;101985.53;5092573;28;20039;-68
2022/07/22 09:52:55;;;;;;;3.30;1.40;;;;;;;21.43;51.26;101987.84;5091783;28;20617;-66
2022/07/22 09:55:23;;;;;;;6.38;1.38;;;;;;;21.60;50.77;101990.06;5092590;28;20622;-68
2022/07/22 09:57:56;;;;;;;6.00;1.70;;;;;;;21.71;50.83;101990.09;5092495;28;20059;-66
2022/07/22 10:00:25;;;;;;;5.32;1.63;;;;;;;21.79;51.63;101988.63;5091448;28;20612;-67
2022/07/22 10:02:56;;;;;;;4.90;1.67;;;;;;;21.87;49.07;101984.41;5092278;28;20028;-70
2022/07/22 10:05:25;;;;;;;4.63;1.63;;;;;;;21.95;48.85;101981.13;5092500;28;20026;-70
2022/07/22 10:07:52;;;;;;;5.32;1.88;;;;;;;22.05;48.95;101984.75;5073482;28;20050;-70
2022/07/22 10:10:21;;;;;;;4.88;1.65;;;;;;;22.15;48.53;101995.47;5092001;28;20017;-70
2022/07/22 10:12:52;;;;;;;5.32;1.95;;;;;;;22.23;47.34;101995.69;5091907;28;20102;-70
2022/07/22 10:15:22;;;;;;;4.38;1.35;;;;;;;22.33;49.65;101997.63;5091192;28;20024;-70
2022/07/22 10:17:50;;;;;;;3.47;1.42;;;;;;;22.44;48.67;101984.31;5094248;28;20035;-70
2022/07/22 10:20:19;;;;;;;4.50;1.85;;;;;;;22.53;47.57;101986.22;5095683;28;20020;-69
2022/07/22 10:23:05;;;;;;;4.60;1.70;;;;;;;22.56;47.60;101983.31;5095216;28;20426;-70
2022/07/22 10:25:47;;;;;;;5.57;1.90;;;;;;;22.67;47.60;101987.75;5095832;28;20074;-68
2022/07/22 10:28:24;;;;;;;4.47;1.73;;;;;;;22.71;47.58;101993.66;5094884;28;20021;-68
2022/07/22 10:30:50;;;;;;;5.80;1.80;;;;;;;22.73;49.34;101997.88;5095853;28;20051;-69
2022/07/22 10:33:20;;;;;;;4.45;1.85;;;;;;;22.73;48.56;101986.38;5095431;28;20020;-68
2022/07/22 10:35:56;;;;;;;5.28;1.67;;;;;;;22.72;47.81;101992.69;5094729;28;20495;-68
2022/07/22 10:38:22;;;;;;;4.95;2.03;;;;;;;22.69;48.30;101996.44;5095924;28;20467;-68
2022/07/22 10:41:06;;;;;;;6.50;1.85;;;;;;;22.66;49.86;101996.69;5095724;28;20024;-68
2022/07/22 10:43:46;;;;;;;4.03;1.77;;;;;;;22.62;48.86;101992.56;5094853;28;20028;-70
2022/07/22 10:46:11;;;;;;;5.35;2.05;;;;;;;22.58;47.57;101989.34;5095044;28;20024;-68
2022/07/22 10:48:37;;;;;;;4.75;1.73;;;;;;;22.55;47.88;101980.78;5095416;28;20487;-67
2022/07/22 10:51:20;;;;;;;3.43;1.73;;;;;;;22.53;48.53;101978.25;5094514;28;20021;-71
2022/07/22 10:53:46;;;;;;;5.17;1.97;;;;;;;22.54;48.48;101971.97;5095452;28;20085;-73
2022/07/22 10:56:31;;;;;;;4.25;1.30;;;;;;;22.66;48.40;101974.59;5094145;28;20028;-69
2022/07/22 10:58:57;;;;;;;4.72;1.30;;;;;;;22.80;48.24;101971.63;5094834;28;20034;-72
2022/07/22 11:01:26;;;;;;;3.03;1.20;;;;;;;22.93;48.37;101964.28;5095233;28;20074;-69
2022/07/22 11:03:55;;;;;;;2.88;1.30;;;;;;;23.10;47.93;101962.91;5094547;28;20069;-67
2022/07/22 11:06:26;;;;;;;4.68;1.45;;;;;;;23.25;47.78;101965.22;5095310;28;20021;-67
2022/07/22 11:08:56;;;;;;;3.95;1.30;;;;;;;23.39;47.74;101961.38;5095180;28;20016;-68
2022/07/22 11:11:33;;;;;;;3.88;1.20;;;;;;;23.48;47.45;101964.09;5094345;28;20020;-70
2022/07/22 11:13:59;;;;;;;14.68;1.92;;;;;;;23.52;46.93;101962.81;5094399;28;20048;-71
2022/07/22 11:16:26;;;;;;;4.22;1.33;;;;;;;23.55;46.87;101967.06;5095136;28;20016;-67
2022/07/22 11:18:56;;;;;;;3.55;1.30;;;;;;;23.60;46.81;101956.84;5094208;28;20016;-67
2022/07/22 11:21:25;;;;;;;3.38;1.73;;;;;;;23.64;46.76;101960.06;5094680;28;20060;-66